createdAt,value
2022-11-07T11:19:20.076Z,14.80
2022-11-07T11:21:50.506Z,14.80
2022-11-07T11:24:37.599Z,14.80
2022-11-07T11:27:13.885Z,14.80
2022-11-07T11:29:46.980Z,14.80
2022-11-07T11:32:25.899Z,14.80
2022-11-07T11:35:00.871Z,14.80
2022-11-07T11:37:29.208Z,14.80
2022-11-07T11:40:12.786Z,14.80
2022-11-07T11:42:51.856Z,14.90
2022-11-07T11:45:27.707Z,15.00
2022-11-07T11:48:03.627Z,15.30
2022-11-07T11:50:39.986Z,15.50
2022-11-07T11:53:14.042Z,15.40
2022-11-07T11:55:52.169Z,15.30
2022-11-07T11:58:33.013Z,15.50
2022-11-07T12:01:10.223Z,16.00
2022-11-07T12:03:56.883Z,16.50
2022-11-07T12:06:29.461Z,16.40
2022-11-07T12:09:28.687Z,16.00
2022-11-07T12:12:05.608Z,15.50
2022-11-07T12:14:58.817Z,15.40
2022-11-07T12:17:38.607Z,15.40
2022-11-07T12:20:18.211Z,15.40
2022-11-07T12:23:01.639Z,15.60
2022-11-07T12:25:34.029Z,15.90
2022-11-07T12:28:13.530Z,16.00
2022-11-07T12:30:51.238Z,15.80
2022-11-07T12:33:27.320Z,15.60
2022-11-07T12:36:02.575Z,15.40
2022-11-07T12:39:17.924Z,15.20
2022-11-07T12:41:53.315Z,15.00
2022-11-07T12:44:37.990Z,15.00
2022-11-07T12:47:16.190Z,14.90
2022-11-07T12:50:02.853Z,15.00
2022-11-07T12:52:52.761Z,15.20
2022-11-07T12:55:25.666Z,15.10
2022-11-07T12:57:58.469Z,15.10
2022-11-07T13:00:30.260Z,15.00
2022-11-07T13:03:31.627Z,14.80
2022-11-07T13:06:12.425Z,14.80
2022-11-07T13:08:51.949Z,14.70
2022-11-07T13:11:25.572Z,14.70
2022-11-07T13:14:09.253Z,14.70
2022-11-07T13:16:38.776Z,14.70
2022-11-07T13:19:11.132Z,14.70
2022-11-07T13:21:43.297Z,14.70
2022-11-07T13:24:23.065Z,14.70
2022-11-07T13:26:51.684Z,14.60
2022-11-07T13:29:29.911Z,14.60
2022-11-07T13:32:10.651Z,14.70
2022-11-07T13:34:48.990Z,14.70
2022-11-07T13:37:21.669Z,14.80
2022-11-07T13:39:53.358Z,14.90
2022-11-07T13:42:24.251Z,14.80
2022-11-07T13:44:56.245Z,14.70
2022-11-07T13:47:31.011Z,14.70
2022-11-07T13:50:05.448Z,14.60
2022-11-07T13:52:40.190Z,14.60
2022-11-07T13:55:20.061Z,14.60
2022-11-07T13:57:54.336Z,14.50
2022-11-07T14:00:25.241Z,14.50
2022-11-07T14:02:56.770Z,14.50
2022-11-07T14:05:27.523Z,14.50
2022-11-07T14:08:01.055Z,14.50
2022-11-07T14:10:34.894Z,14.50
2022-11-07T14:13:09.287Z,14.40
2022-11-07T14:15:44.888Z,14.40
2022-11-07T14:18:16.325Z,14.40
2022-11-07T14:20:47.957Z,14.30
2022-11-07T14:23:22.693Z,14.20
2022-11-07T14:26:00.653Z,14.00
2022-11-07T14:28:36.214Z,13.90
2022-11-07T14:31:06.181Z,13.80
2022-11-07T14:33:34.507Z,13.80
2022-11-07T14:36:07.002Z,13.70
2022-11-07T14:38:36.558Z,13.80
2022-11-07T14:41:06.652Z,13.80
2022-11-07T14:43:35.719Z,13.70
2022-11-07T14:46:13.589Z,13.60
2022-11-07T14:48:44.570Z,13.60
2022-11-07T14:51:15.991Z,13.50
2022-11-07T14:53:57.560Z,13.50
2022-11-07T14:56:31.865Z,13.40
2022-11-07T14:59:02.306Z,13.30
2022-11-07T15:01:33.071Z,13.20
2022-11-07T15:04:05.010Z,13.10
2022-11-07T15:06:36.336Z,13.00
2022-11-07T15:09:07.952Z,12.90
2022-11-07T15:11:39.024Z,12.80
2022-11-07T15:14:22.076Z,12.70
2022-11-07T15:16:51.708Z,12.60
2022-11-07T15:19:23.436Z,12.40
2022-11-07T15:21:56.387Z,12.40
2022-11-07T15:24:38.647Z,12.20
2022-11-07T15:27:21.431Z,12.10
2022-11-07T15:29:54.703Z,11.90
2022-11-07T15:32:25.147Z,11.80
2022-11-07T15:35:23.046Z,11.70
2022-11-07T15:37:53.331Z,11.50
2022-11-07T15:40:22.844Z,11.30
2022-11-07T15:42:52.945Z,11.20
2022-11-07T15:45:22.365Z,11.10
2022-11-07T15:47:52.820Z,11.00
2022-11-07T15:50:26.322Z,10.90
2022-11-07T15:52:59.797Z,10.80
2022-11-07T15:55:29.916Z,10.70
2022-11-07T15:58:00.453Z,10.50
2022-11-07T16:00:28.950Z,10.40
2022-11-07T16:03:00.536Z,10.30
2022-11-07T16:05:29.032Z,10.20
2022-11-07T16:07:58.664Z,10.10
2022-11-07T16:10:28.166Z,10.10
2022-11-07T16:13:03.816Z,10.00
2022-11-07T16:15:42.755Z,9.90
2022-11-07T16:18:25.328Z,9.80
2022-11-07T16:20:54.737Z,9.70
2022-11-07T16:23:28.633Z,9.60
2022-11-07T16:26:00.226Z,9.50
2022-11-07T16:28:32.081Z,9.50
2022-11-07T16:31:23.503Z,9.40
2022-11-07T16:36:43.638Z,9.30
2022-11-07T16:39:21.922Z,9.20
2022-11-07T16:41:51.663Z,9.10
2022-11-07T16:44:35.548Z,9.10
2022-11-07T16:47:07.313Z,9.00
2022-11-07T16:49:41.461Z,8.90
2022-11-07T16:52:15.043Z,8.80
2022-11-07T16:54:51.453Z,8.80
2022-11-07T16:57:30.533Z,8.70
2022-11-07T17:00:31.943Z,8.70
2022-11-07T17:03:09.645Z,8.60
2022-11-07T17:05:41.991Z,8.50
2022-11-07T17:08:20.221Z,8.50
2022-11-07T17:10:54.615Z,8.40
2022-11-07T17:13:35.755Z,8.40
2022-11-07T17:16:15.695Z,8.40
2022-11-07T17:18:54.583Z,8.30
2022-11-07T17:21:28.632Z,8.30
2022-11-07T17:23:59.125Z,8.30
2022-11-07T17:26:31.686Z,8.30
2022-11-07T17:29:04.313Z,8.30
2022-11-07T17:31:35.318Z,8.30
2022-11-07T17:34:05.932Z,8.40
2022-11-07T17:36:46.931Z,8.40
2022-11-07T17:42:05.790Z,8.40
2022-11-07T17:45:09.310Z,8.40
2022-11-07T17:48:16.020Z,8.40
2022-11-07T17:50:47.189Z,8.40
2022-11-07T17:53:15.966Z,8.40
2022-11-07T17:55:53.471Z,8.30
2022-11-07T17:58:34.442Z,8.20
2022-11-07T18:01:10.989Z,8.20
2022-11-07T18:03:56.315Z,8.10
2022-11-07T18:06:54.114Z,8.10
2022-11-07T18:09:37.907Z,8.10
2022-11-07T18:12:33.567Z,8.10
2022-11-07T18:15:05.463Z,8.10
2022-11-07T18:17:41.491Z,8.00
2022-11-07T18:20:18.150Z,8.00
2022-11-07T18:23:26.467Z,7.90
2022-11-07T18:26:57.615Z,7.90
2022-11-07T18:29:40.941Z,7.80
2022-11-07T18:33:07.496Z,7.80
2022-11-07T18:35:13.143Z,7.70
2022-11-07T18:37:51.128Z,7.70
2022-11-07T18:40:34.569Z,7.60
2022-11-07T18:43:21.306Z,7.60
2022-11-07T18:45:49.487Z,7.50
2022-11-07T18:48:17.881Z,7.50
2022-11-07T18:50:47.360Z,7.50
